Route Details

Aircraft Information
Group: Trans-Pacific Ops
Types: B744, B763, MD11
Route Data
Distance: 2980nm
Duration: 7h 15m
Recm'd Route: NODLE R220 NEONN G349 MARCC G583 BISIV Y116 AWE ASIBE TME TOBBY Y10 LARCH Y302 JUGEM Y30 SWAMP SWAMSA
Origin Wx: PANC 042153Z 30007KT 10SM FEW030 BKN110 OVC200 18/12 A2995 RMK AO2 SLP141 T01780117 $
Dest. Wx: RJAA 042200Z 21006KT 170V230 9999 VCSH FEW030 SCT070 BKN/// 26/23 Q1010 NOSIG
Notes:
Freight Data
(for Jul 4, 2022)
Load Factor:
47%
Manifested Cargo: 114,023lbs
Financial History
Total Freight: 1,216,799lbs
Average Load: 0lbs/flt
Fuel Used: 1,513,534lbs
Avg. Fuel Used: 0lbs/flt
Fuel Expense: $1,344,151
Avg. Fuel Expense: $0
Avg. Fuel Cost: $0/lbs
Total Gross Income: $3,686,355
Pilot Pay: $3,334
Total Expenses: $471,710
Total Revenue: $1,840,557
Average Revenue: $0

Capitol Logistics 32




PANC
Ted Stevens Anchorage International Airport
Anchorage, Alaska
RJAA
Tokyo-Narita International Airport
Tokyo,

Activity Log

Date Flight Route Aircraft Duration
07/03/2022 CPX32 NODLE R220 NEONN G349 MARCC G583 BISIV Y116 AWE ASIBE TME TOBBY Y10 LARCH Y302 JUGEM Y30 SWAMP SWAMSA B744 6h 51m
09/23/2021 CPX32 NODLE NICHO NIKLL NIPPI R220 NOGAL NANAC SWAMP B744 7h 19m
09/14/2021 CPX32 NODLE R220 NEONN G349 MARCC G583 BISIV Y116 AWE ASIBE TME TOBBY Y10 LARCH Y302 JUGEM Y30 SWAMP SWAMSA B763 8h 08m
09/05/2021 CPX32 NODLE R220 NANZA R220 NIKLL R220 NANAC Y810 ARMOR Y810 KETAR Y811 MELON B763 7h 23m
04/16/2021 CPX32 NODLE R220 NANZA R220 NIKLL R220 NANAC Y810 ARMOR Y810 KETAR Y811 MELON B744 7h 00m
08/31/2020 CPX32 NODLE R220 NANZA R220 NIKLL R220 NANAC Y810 ARMOR Y810 KETAR Y811 MELON B763 7h 09m
12/02/2019 CPX32 NODLE R220 NANZA R220 NIKLL R220 NANAC Y810 ARMOR Y810 KETAR Y811 MELON B77L 8h 15m
09/13/2019 CPX32 NODLE R220 NANZA R220 NIKLL R220 NANAC Y810 ARMOR Y810 KETAR Y811 MELON B763 7h 54m
09/07/2019 CPX32 TED J501 VIDDA/N0455F380 J501 BET NEONN G349 KIVAK B932 BAMOK M152 RAPAK/N0456F400 M152 ODERI B932 TBE V4 OBE Y110 RACKO Z14 CAVES V22 MQE IXE SWAMP SWAMPN B763 7h 50m
07/10/2019 CPX32 NODLE R220 NANZA R220 NIKLL R220 NANAC Y810 ARMOR Y810 KETAR Y811 MELON B763 7h 04m
07/07/2019 CPX32 NODLE R220 NANZA R220 NIKLL R220 NANAC Y810 ARMOR Y810 KETAR Y811 MELON B763 7h 25m
06/17/2019 CPX32 NODLE R220 NANZA R220 NIKLL R220 NANAC Y810 ARMOR Y810 KETAR Y811 MELON B763 7h 38m
02/08/2019 CPX32 NODLE R220 NANDY/N0476F320 R220 NYMPH/K0878F330 R220 NUZAN/N0479F330 R220 NOGAL/N0486F340 R220 NUBDA/N0484F350 R220 NANAC/N0473F340 Y810 KETAR Y811 MELON ELGAR B763 7h 09m
01/23/2019 CPX32 NODLE R220 NANZA R220 NIKLL R220 NANAC Y810 ARMOR Y810 KETAR Y811 MELON B763 7h 23m
12/31/2018 CPX506 NODLE R220 NANZA R220 NIKLL R220 NANAC Y810 ARMOR Y810 KETAR Y811 MELON B763 7h 34m
12/21/2018 CPX505 NODLE R220 NANAC Y810 KETAR Y811 MELON ELGAR B763 7h 33m